sensor_id;sensor_type;location;lat;lon;timestamp;P1;durP1;ratioP1;P2;durP2;ratioP2
25715;SDS011;13573;50.936;4.328;2022-12-11T00:00:44;37.53;;;17.07;;
25715;SDS011;13573;50.936;4.328;2022-12-11T00:03:10;38.20;;;17.73;;
25715;SDS011;13573;50.936;4.328;2022-12-11T00:05:38;39.00;;;17.20;;
25715;SDS011;13573;50.936;4.328;2022-12-11T00:08:05;38.20;;;17.07;;
25715;SDS011;13573;50.936;4.328;2022-12-11T00:10:31;36.87;;;16.53;;
25715;SDS011;13573;50.936;4.328;2022-12-11T00:12:59;37.83;;;16.40;;
25715;SDS011;13573;50.936;4.328;2022-12-11T00:15:26;38.77;;;17.07;;
25715;SDS011;13573;50.936;4.328;2022-12-11T00:17:53;41.83;;;17.70;;
25715;SDS011;13573;50.936;4.328;2022-12-11T00:20:19;40.77;;;16.33;;
25715;SDS011;13573;50.936;4.328;2022-12-11T00:22:46;36.80;;;16.87;;
25715;SDS011;13573;50.936;4.328;2022-12-11T00:25:12;35.33;;;16.57;;
25715;SDS011;13573;50.936;4.328;2022-12-11T00:27:39;38.67;;;16.30;;
25715;SDS011;13573;50.936;4.328;2022-12-11T00:30:06;37.23;;;17.17;;
25715;SDS011;13573;50.936;4.328;2022-12-11T00:32:33;33.53;;;15.83;;
25715;SDS011;13573;50.936;4.328;2022-12-11T00:35:00;38.80;;;17.27;;
25715;SDS011;13573;50.936;4.328;2022-12-11T00:37:27;37.47;;;18.17;;
25715;SDS011;13573;50.936;4.328;2022-12-11T00:39:54;37.17;;;15.90;;
25715;SDS011;13573;50.936;4.328;2022-12-11T00:42:21;38.27;;;17.60;;
25715;SDS011;13573;50.936;4.328;2022-12-11T00:44:47;39.53;;;17.63;;
25715;SDS011;13573;50.936;4.328;2022-12-11T00:47:14;38.70;;;17.63;;
25715;SDS011;13573;50.936;4.328;2022-12-11T00:49:40;41.30;;;17.47;;
25715;SDS011;13573;50.936;4.328;2022-12-11T00:52:07;37.60;;;16.70;;
25715;SDS011;13573;50.936;4.328;2022-12-11T00:54:35;39.77;;;17.23;;
25715;SDS011;13573;50.936;4.328;2022-12-11T00:57:02;38.10;;;16.73;;
25715;SDS011;13573;50.936;4.328;2022-12-11T00:59:29;41.20;;;18.37;;
25715;SDS011;13573;50.936;4.328;2022-12-11T01:01:55;44.30;;;19.57;;
25715;SDS011;13573;50.936;4.328;2022-12-11T01:04:22;40.23;;;18.37;;
25715;SDS011;13573;50.936;4.328;2022-12-11T01:06:49;43.37;;;17.93;;
25715;SDS011;13573;50.936;4.328;2022-12-11T01:09:15;42.47;;;18.57;;
25715;SDS011;13573;50.936;4.328;2022-12-11T01:11:47;46.57;;;19.07;;
25715;SDS011;13573;50.936;4.328;2022-12-11T01:14:14;46.37;;;19.33;;
25715;SDS011;13573;50.936;4.328;2022-12-11T01:16:41;51.87;;;20.63;;
25715;SDS011;13573;50.936;4.328;2022-12-11T01:19:07;44.77;;;18.63;;
25715;SDS011;13573;50.936;4.328;2022-12-11T01:21:34;42.43;;;18.87;;
25715;SDS011;13573;50.936;4.328;2022-12-11T01:24:01;38.00;;;18.07;;
25715;SDS011;13573;50.936;4.328;2022-12-11T01:26:27;41.00;;;17.63;;
25715;SDS011;13573;50.936;4.328;2022-12-11T01:28:55;40.67;;;18.27;;
25715;SDS011;13573;50.936;4.328;2022-12-11T01:31:22;35.70;;;16.93;;
25715;SDS011;13573;50.936;4.328;2022-12-11T01:33:48;38.13;;;17.13;;
25715;SDS011;13573;50.936;4.328;2022-12-11T01:36:16;41.37;;;18.40;;
25715;SDS011;13573;50.936;4.328;2022-12-11T01:38:45;37.37;;;18.00;;
25715;SDS011;13573;50.936;4.328;2022-12-11T01:41:12;38.17;;;16.97;;
25715;SDS011;13573;50.936;4.328;2022-12-11T01:46:18;38.20;;;17.33;;
25715;SDS011;13573;50.936;4.328;2022-12-11T01:48:45;40.43;;;18.03;;
25715;SDS011;13573;50.936;4.328;2022-12-11T01:51:12;40.03;;;18.27;;
25715;SDS011;13573;50.936;4.328;2022-12-11T01:53:40;41.63;;;18.57;;
25715;SDS011;13573;50.936;4.328;2022-12-11T01:56:07;42.27;;;18.70;;
25715;SDS011;13573;50.936;4.328;2022-12-11T01:58:40;39.27;;;17.47;;
25715;SDS011;13573;50.936;4.328;2022-12-11T02:01:06;41.93;;;19.00;;
25715;SDS011;13573;50.936;4.328;2022-12-11T02:03:34;41.57;;;19.83;;
25715;SDS011;13573;50.936;4.328;2022-12-11T02:06:01;43.23;;;19.23;;
25715;SDS011;13573;50.936;4.328;2022-12-11T02:08:27;44.00;;;18.60;;
25715;SDS011;13573;50.936;4.328;2022-12-11T02:10:59;40.90;;;18.50;;
25715;SDS011;13573;50.936;4.328;2022-12-11T02:13:50;44.97;;;18.97;;
25715;SDS011;13573;50.936;4.328;2022-12-11T02:16:37;40.17;;;18.57;;
25715;SDS011;13573;50.936;4.328;2022-12-11T02:19:07;46.63;;;20.03;;
25715;SDS011;13573;50.936;4.328;2022-12-11T02:21:38;46.50;;;18.67;;
25715;SDS011;13573;50.936;4.328;2022-12-11T02:24:14;47.20;;;19.77;;
25715;SDS011;13573;50.936;4.328;2022-12-11T02:29:12;46.93;;;20.30;;
25715;SDS011;13573;50.936;4.328;2022-12-11T02:31:40;49.90;;;19.70;;
25715;SDS011;13573;50.936;4.328;2022-12-11T02:34:10;43.37;;;19.60;;
25715;SDS011;13573;50.936;4.328;2022-12-11T02:36:39;43.67;;;19.17;;
25715;SDS011;13573;50.936;4.328;2022-12-11T02:39:09;44.20;;;20.20;;
25715;SDS011;13573;50.936;4.328;2022-12-11T02:41:38;42.50;;;19.33;;
25715;SDS011;13573;50.936;4.328;2022-12-11T02:44:07;39.90;;;18.23;;
25715;SDS011;13573;50.936;4.328;2022-12-11T02:46:36;43.33;;;19.77;;
25715;SDS011;13573;50.936;4.328;2022-12-11T02:49:05;45.93;;;20.33;;
25715;SDS011;13573;50.936;4.328;2022-12-11T02:51:33;40.97;;;18.20;;
25715;SDS011;13573;50.936;4.328;2022-12-11T02:54:02;40.97;;;18.63;;
25715;SDS011;13573;50.936;4.328;2022-12-11T02:56:33;47.47;;;20.43;;
25715;SDS011;13573;50.936;4.328;2022-12-11T02:59:07;48.80;;;20.43;;
25715;SDS011;13573;50.936;4.328;2022-12-11T03:01:33;45.33;;;21.30;;
25715;SDS011;13573;50.936;4.328;2022-12-11T03:04:00;47.30;;;20.27;;
25715;SDS011;13573;50.936;4.328;2022-12-11T03:06:31;45.73;;;19.90;;
25715;SDS011;13573;50.936;4.328;2022-12-11T03:08:59;46.87;;;20.63;;
25715;SDS011;13573;50.936;4.328;2022-12-11T03:11:25;43.10;;;20.87;;
25715;SDS011;13573;50.936;4.328;2022-12-11T03:13:52;50.03;;;21.30;;
25715;SDS011;13573;50.936;4.328;2022-12-11T03:16:25;48.00;;;20.87;;
25715;SDS011;13573;50.936;4.328;2022-12-11T03:18:54;50.63;;;22.23;;
25715;SDS011;13573;50.936;4.328;2022-12-11T03:21:23;45.90;;;21.20;;
25715;SDS011;13573;50.936;4.328;2022-12-11T03:24:09;45.60;;;21.03;;
25715;SDS011;13573;50.936;4.328;2022-12-11T03:26:40;46.60;;;19.97;;
25715;SDS011;13573;50.936;4.328;2022-12-11T03:29:12;51.83;;;20.47;;
25715;SDS011;13573;50.936;4.328;2022-12-11T03:31:40;50.70;;;20.97;;
25715;SDS011;13573;50.936;4.328;2022-12-11T03:34:12;50.33;;;21.80;;
25715;SDS011;13573;50.936;4.328;2022-12-11T03:36:47;52.20;;;22.53;;
25715;SDS011;13573;50.936;4.328;2022-12-11T03:39:17;45.80;;;19.80;;
25715;SDS011;13573;50.936;4.328;2022-12-11T03:41:47;50.57;;;22.87;;
25715;SDS011;13573;50.936;4.328;2022-12-11T03:44:15;53.33;;;21.40;;
25715;SDS011;13573;50.936;4.328;2022-12-11T03:46:43;52.40;;;21.33;;
25715;SDS011;13573;50.936;4.328;2022-12-11T03:49:15;51.37;;;22.10;;
25715;SDS011;13573;50.936;4.328;2022-12-11T03:51:42;52.53;;;23.07;;
25715;SDS011;13573;50.936;4.328;2022-12-11T03:54:12;55.57;;;22.83;;
25715;SDS011;13573;50.936;4.328;2022-12-11T03:56:39;50.63;;;23.13;;
25715;SDS011;13573;50.936;4.328;2022-12-11T03:59:07;54.37;;;23.00;;
25715;SDS011;13573;50.936;4.328;2022-12-11T04:01:34;50.27;;;22.77;;
25715;SDS011;13573;50.936;4.328;2022-12-11T04:04:02;55.97;;;22.93;;
25715;SDS011;13573;50.936;4.328;2022-12-11T04:06:28;51.47;;;21.77;;
25715;SDS011;13573;50.936;4.328;2022-12-11T04:08:55;50.43;;;21.93;;
25715;SDS011;13573;50.936;4.328;2022-12-11T04:11:22;52.97;;;22.60;;
25715;SDS011;13573;50.936;4.328;2022-12-11T04:13:54;57.10;;;22.23;;
25715;SDS011;13573;50.936;4.328;2022-12-11T04:16:26;54.40;;;22.37;;
25715;SDS011;13573;50.936;4.328;2022-12-11T04:18:53;55.27;;;22.63;;
25715;SDS011;13573;50.936;4.328;2022-12-11T04:21:25;53.93;;;22.47;;
25715;SDS011;13573;50.936;4.328;2022-12-11T04:23:58;51.60;;;22.03;;
25715;SDS011;13573;50.936;4.328;2022-12-11T04:26:30;51.93;;;22.50;;
25715;SDS011;13573;50.936;4.328;2022-12-11T04:28:56;54.60;;;23.43;;
25715;SDS011;13573;50.936;4.328;2022-12-11T04:31:23;50.03;;;22.03;;
25715;SDS011;13573;50.936;4.328;2022-12-11T04:33:50;54.73;;;23.63;;
25715;SDS011;13573;50.936;4.328;2022-12-11T04:36:17;53.30;;;22.97;;
25715;SDS011;13573;50.936;4.328;2022-12-11T04:38:43;57.83;;;23.20;;
25715;SDS011;13573;50.936;4.328;2022-12-11T04:41:11;58.23;;;23.80;;
25715;SDS011;13573;50.936;4.328;2022-12-11T04:43:38;58.43;;;23.27;;
25715;SDS011;13573;50.936;4.328;2022-12-11T04:46:08;58.40;;;24.73;;
25715;SDS011;13573;50.936;4.328;2022-12-11T04:48:37;58.70;;;23.27;;
25715;SDS011;13573;50.936;4.328;2022-12-11T04:51:04;67.10;;;26.57;;
25715;SDS011;13573;50.936;4.328;2022-12-11T04:53:31;62.57;;;24.27;;
25715;SDS011;13573;50.936;4.328;2022-12-11T04:55:58;62.80;;;25.00;;
25715;SDS011;13573;50.936;4.328;2022-12-11T04:58:24;60.17;;;24.37;;
25715;SDS011;13573;50.936;4.328;2022-12-11T05:00:51;54.97;;;23.03;;
25715;SDS011;13573;50.936;4.328;2022-12-11T05:03:18;63.40;;;25.60;;
25715;SDS011;13573;50.936;4.328;2022-12-11T05:05:47;62.10;;;24.80;;
25715;SDS011;13573;50.936;4.328;2022-12-11T05:08:15;59.70;;;23.80;;
25715;SDS011;13573;50.936;4.328;2022-12-11T05:10:43;68.67;;;24.40;;
25715;SDS011;13573;50.936;4.328;2022-12-11T05:13:09;64.27;;;24.70;;
25715;SDS011;13573;50.936;4.328;2022-12-11T05:15:38;68.50;;;25.50;;
25715;SDS011;13573;50.936;4.328;2022-12-11T05:18:05;65.90;;;25.50;;
25715;SDS011;13573;50.936;4.328;2022-12-11T05:20:31;67.20;;;25.53;;
25715;SDS011;13573;50.936;4.328;2022-12-11T05:22:58;61.33;;;25.07;;
25715;SDS011;13573;50.936;4.328;2022-12-11T05:25:25;56.73;;;23.97;;
25715;SDS011;13573;50.936;4.328;2022-12-11T05:27:51;65.70;;;26.60;;
25715;SDS011;13573;50.936;4.328;2022-12-11T05:30:18;61.10;;;24.57;;
25715;SDS011;13573;50.936;4.328;2022-12-11T05:32:45;67.33;;;26.83;;
25715;SDS011;13573;50.936;4.328;2022-12-11T05:35:12;57.37;;;25.07;;
25715;SDS011;13573;50.936;4.328;2022-12-11T05:37:38;63.57;;;25.40;;
25715;SDS011;13573;50.936;4.328;2022-12-11T05:40:06;61.87;;;25.63;;
25715;SDS011;13573;50.936;4.328;2022-12-11T05:42:32;57.67;;;24.13;;
25715;SDS011;13573;50.936;4.328;2022-12-11T05:45:00;64.87;;;26.07;;
25715;SDS011;13573;50.936;4.328;2022-12-11T05:47:26;66.17;;;25.57;;
25715;SDS011;13573;50.936;4.328;2022-12-11T05:49:53;58.37;;;25.17;;
25715;SDS011;13573;50.936;4.328;2022-12-11T05:52:19;57.03;;;25.40;;
25715;SDS011;13573;50.936;4.328;2022-12-11T05:54:47;62.67;;;25.27;;
25715;SDS011;13573;50.936;4.328;2022-12-11T05:57:15;64.43;;;25.80;;
25715;SDS011;13573;50.936;4.328;2022-12-11T05:59:42;67.17;;;25.13;;
25715;SDS011;13573;50.936;4.328;2022-12-11T06:02:09;66.33;;;27.23;;
25715;SDS011;13573;50.936;4.328;2022-12-11T06:04:36;56.70;;;24.47;;
25715;SDS011;13573;50.936;4.328;2022-12-11T06:07:02;65.33;;;25.50;;
25715;SDS011;13573;50.936;4.328;2022-12-11T06:09:29;62.37;;;24.70;;
25715;SDS011;13573;50.936;4.328;2022-12-11T06:11:56;60.37;;;23.57;;
25715;SDS011;13573;50.936;4.328;2022-12-11T06:14:23;64.67;;;26.50;;
25715;SDS011;13573;50.936;4.328;2022-12-11T06:16:49;63.37;;;26.03;;
25715;SDS011;13573;50.936;4.328;2022-12-11T06:19:16;66.63;;;26.10;;
25715;SDS011;13573;50.936;4.328;2022-12-11T06:21:44;60.50;;;25.60;;
25715;SDS011;13573;50.936;4.328;2022-12-11T06:24:13;62.47;;;28.00;;
25715;SDS011;13573;50.936;4.328;2022-12-11T06:26:40;61.70;;;26.13;;
25715;SDS011;13573;50.936;4.328;2022-12-11T06:29:06;66.27;;;26.63;;
25715;SDS011;13573;50.936;4.328;2022-12-11T06:31:33;62.57;;;26.70;;
25715;SDS011;13573;50.936;4.328;2022-12-11T06:34:00;62.77;;;25.93;;
25715;SDS011;13573;50.936;4.328;2022-12-11T06:36:26;64.77;;;27.33;;
25715;SDS011;13573;50.936;4.328;2022-12-11T06:38:53;62.07;;;24.80;;
25715;SDS011;13573;50.936;4.328;2022-12-11T06:41:20;61.20;;;24.67;;
25715;SDS011;13573;50.936;4.328;2022-12-11T06:43:47;54.13;;;24.10;;
25715;SDS011;13573;50.936;4.328;2022-12-11T06:46:15;57.53;;;24.27;;
25715;SDS011;13573;50.936;4.328;2022-12-11T06:48:43;59.60;;;23.37;;
25715;SDS011;13573;50.936;4.328;2022-12-11T06:51:12;56.17;;;22.80;;
25715;SDS011;13573;50.936;4.328;2022-12-11T06:53:41;56.13;;;22.23;;
25715;SDS011;13573;50.936;4.328;2022-12-11T06:56:10;56.57;;;23.60;;
25715;SDS011;13573;50.936;4.328;2022-12-11T06:58:37;56.20;;;23.60;;
25715;SDS011;13573;50.936;4.328;2022-12-11T07:01:11;59.90;;;24.87;;
25715;SDS011;13573;50.936;4.328;2022-12-11T07:03:33;52.80;;;22.43;;
25715;SDS011;13573;50.936;4.328;2022-12-11T07:06:00;55.97;;;22.73;;
25715;SDS011;13573;50.936;4.328;2022-12-11T07:08:27;55.17;;;21.73;;
25715;SDS011;13573;50.936;4.328;2022-12-11T07:11:00;56.30;;;23.30;;
25715;SDS011;13573;50.936;4.328;2022-12-11T07:13:23;61.27;;;23.97;;
25715;SDS011;13573;50.936;4.328;2022-12-11T07:15:49;59.50;;;23.10;;
25715;SDS011;13573;50.936;4.328;2022-12-11T07:18:16;58.20;;;22.77;;
25715;SDS011;13573;50.936;4.328;2022-12-11T07:20:43;56.97;;;22.63;;
25715;SDS011;13573;50.936;4.328;2022-12-11T07:23:11;57.60;;;22.57;;
25715;SDS011;13573;50.936;4.328;2022-12-11T07:25:37;62.17;;;24.67;;
25715;SDS011;13573;50.936;4.328;2022-12-11T07:28:03;53.33;;;22.37;;
25715;SDS011;13573;50.936;4.328;2022-12-11T07:30:31;53.37;;;22.70;;
25715;SDS011;13573;50.936;4.328;2022-12-11T07:32:57;53.50;;;22.87;;
25715;SDS011;13573;50.936;4.328;2022-12-11T07:35:24;60.50;;;22.20;;
25715;SDS011;13573;50.936;4.328;2022-12-11T07:37:50;60.03;;;23.93;;
25715;SDS011;13573;50.936;4.328;2022-12-11T07:40:17;66.93;;;24.30;;
25715;SDS011;13573;50.936;4.328;2022-12-11T07:42:43;58.93;;;23.17;;
25715;SDS011;13573;50.936;4.328;2022-12-11T07:45:10;60.33;;;23.30;;
25715;SDS011;13573;50.936;4.328;2022-12-11T07:47:36;62.13;;;23.63;;
25715;SDS011;13573;50.936;4.328;2022-12-11T07:50:03;60.00;;;22.97;;
25715;SDS011;13573;50.936;4.328;2022-12-11T07:52:32;59.17;;;24.30;;
25715;SDS011;13573;50.936;4.328;2022-12-11T07:54:58;57.60;;;24.43;;
25715;SDS011;13573;50.936;4.328;2022-12-11T07:57:24;60.27;;;21.57;;
25715;SDS011;13573;50.936;4.328;2022-12-11T07:59:52;54.57;;;21.87;;
25715;SDS011;13573;50.936;4.328;2022-12-11T08:02:19;61.60;;;23.13;;
25715;SDS011;13573;50.936;4.328;2022-12-11T08:04:46;62.10;;;22.60;;
25715;SDS011;13573;50.936;4.328;2022-12-11T08:07:14;61.93;;;24.10;;
25715;SDS011;13573;50.936;4.328;2022-12-11T08:09:41;61.20;;;22.87;;
25715;SDS011;13573;50.936;4.328;2022-12-11T08:12:08;61.03;;;22.87;;
25715;SDS011;13573;50.936;4.328;2022-12-11T08:14:34;60.20;;;22.67;;
25715;SDS011;13573;50.936;4.328;2022-12-11T08:17:01;59.73;;;23.77;;
25715;SDS011;13573;50.936;4.328;2022-12-11T08:19:27;60.07;;;23.93;;
25715;SDS011;13573;50.936;4.328;2022-12-11T08:21:55;65.63;;;23.17;;
25715;SDS011;13573;50.936;4.328;2022-12-11T08:24:21;60.80;;;22.57;;
25715;SDS011;13573;50.936;4.328;2022-12-11T08:26:48;64.93;;;23.77;;
25715;SDS011;13573;50.936;4.328;2022-12-11T08:29:14;54.53;;;21.40;;
25715;SDS011;13573;50.936;4.328;2022-12-11T08:31:41;50.97;;;21.43;;
25715;SDS011;13573;50.936;4.328;2022-12-11T08:34:09;57.90;;;22.10;;
25715;SDS011;13573;50.936;4.328;2022-12-11T08:36:37;58.73;;;24.10;;
25715;SDS011;13573;50.936;4.328;2022-12-11T08:39:03;57.83;;;22.27;;
25715;SDS011;13573;50.936;4.328;2022-12-11T08:41:30;57.63;;;22.00;;
25715;SDS011;13573;50.936;4.328;2022-12-11T08:43:57;55.90;;;21.93;;
25715;SDS011;13573;50.936;4.328;2022-12-11T08:46:26;56.50;;;22.47;;
25715;SDS011;13573;50.936;4.328;2022-12-11T08:48:55;62.70;;;24.10;;
25715;SDS011;13573;50.936;4.328;2022-12-11T08:51:24;60.77;;;22.53;;
25715;SDS011;13573;50.936;4.328;2022-12-11T08:53:55;61.80;;;23.03;;
25715;SDS011;13573;50.936;4.328;2022-12-11T08:56:23;56.80;;;22.77;;
25715;SDS011;13573;50.936;4.328;2022-12-11T08:58:50;59.23;;;22.40;;
25715;SDS011;13573;50.936;4.328;2022-12-11T09:01:19;55.77;;;21.40;;
25715;SDS011;13573;50.936;4.328;2022-12-11T09:03:47;53.47;;;19.90;;
25715;SDS011;13573;50.936;4.328;2022-12-11T09:06:15;54.53;;;21.73;;
25715;SDS011;13573;50.936;4.328;2022-12-11T09:08:42;52.60;;;21.23;;
25715;SDS011;13573;50.936;4.328;2022-12-11T09:11:11;49.43;;;21.20;;
25715;SDS011;13573;50.936;4.328;2022-12-11T09:13:39;51.90;;;21.70;;
25715;SDS011;13573;50.936;4.328;2022-12-11T09:16:07;50.87;;;20.27;;
25715;SDS011;13573;50.936;4.328;2022-12-11T09:18:34;51.07;;;20.53;;
25715;SDS011;13573;50.936;4.328;2022-12-11T09:21:02;48.13;;;19.90;;
25715;SDS011;13573;50.936;4.328;2022-12-11T09:23:32;50.23;;;20.53;;
25715;SDS011;13573;50.936;4.328;2022-12-11T09:25:59;50.13;;;20.63;;
25715;SDS011;13573;50.936;4.328;2022-12-11T09:28:25;48.03;;;21.77;;
25715;SDS011;13573;50.936;4.328;2022-12-11T09:30:52;49.37;;;20.70;;
25715;SDS011;13573;50.936;4.328;2022-12-11T09:33:18;49.23;;;20.97;;
25715;SDS011;13573;50.936;4.328;2022-12-11T09:35:45;53.27;;;20.47;;
25715;SDS011;13573;50.936;4.328;2022-12-11T09:38:13;48.60;;;21.03;;
25715;SDS011;13573;50.936;4.328;2022-12-11T09:40:41;48.97;;;21.20;;
25715;SDS011;13573;50.936;4.328;2022-12-11T09:43:13;49.90;;;20.17;;
25715;SDS011;13573;50.936;4.328;2022-12-11T09:45:40;48.97;;;20.83;;
25715;SDS011;13573;50.936;4.328;2022-12-11T09:48:07;49.67;;;20.70;;
25715;SDS011;13573;50.936;4.328;2022-12-11T09:50:35;45.53;;;18.70;;
25715;SDS011;13573;50.936;4.328;2022-12-11T09:53:05;47.37;;;19.80;;
25715;SDS011;13573;50.936;4.328;2022-12-11T09:55:40;49.50;;;20.30;;
25715;SDS011;13573;50.936;4.328;2022-12-11T09:58:12;46.87;;;19.20;;
25715;SDS011;13573;50.936;4.328;2022-12-11T10:00:44;48.93;;;20.63;;
25715;SDS011;13573;50.936;4.328;2022-12-11T10:08:22;47.60;;;20.20;;
25715;SDS011;13573;50.936;4.328;2022-12-11T10:10:57;44.00;;;19.80;;
25715;SDS011;13573;50.936;4.328;2022-12-11T10:13:29;44.97;;;19.20;;
25715;SDS011;13573;50.936;4.328;2022-12-11T10:15:57;42.97;;;19.47;;
25715;SDS011;13573;50.936;4.328;2022-12-11T10:18:24;41.23;;;18.30;;
25715;SDS011;13573;50.936;4.328;2022-12-11T10:20:54;42.20;;;18.70;;
25715;SDS011;13573;50.936;4.328;2022-12-11T10:23:24;41.43;;;18.30;;
25715;SDS011;13573;50.936;4.328;2022-12-11T10:25:57;42.87;;;18.57;;
25715;SDS011;13573;50.936;4.328;2022-12-11T10:28:35;44.83;;;19.13;;
25715;SDS011;13573;50.936;4.328;2022-12-11T10:31:07;49.87;;;19.77;;
25715;SDS011;13573;50.936;4.328;2022-12-11T10:33:48;48.60;;;20.57;;
25715;SDS011;13573;50.936;4.328;2022-12-11T10:36:11;43.73;;;19.97;;
25715;SDS011;13573;50.936;4.328;2022-12-11T10:38:43;43.37;;;19.30;;
25715;SDS011;13573;50.936;4.328;2022-12-11T10:41:11;49.80;;;20.10;;
25715;SDS011;13573;50.936;4.328;2022-12-11T10:43:39;47.73;;;20.03;;
25715;SDS011;13573;50.936;4.328;2022-12-11T10:46:16;46.60;;;19.80;;
25715;SDS011;13573;50.936;4.328;2022-12-11T10:48:44;47.30;;;20.23;;
25715;SDS011;13573;50.936;4.328;2022-12-11T10:51:11;49.93;;;20.60;;
25715;SDS011;13573;50.936;4.328;2022-12-11T10:53:38;45.63;;;19.20;;
25715;SDS011;13573;50.936;4.328;2022-12-11T10:56:08;44.17;;;18.07;;
25715;SDS011;13573;50.936;4.328;2022-12-11T10:58:36;40.70;;;16.50;;
25715;SDS011;13573;50.936;4.328;2022-12-11T11:01:07;43.30;;;17.47;;
25715;SDS011;13573;50.936;4.328;2022-12-11T11:03:41;44.70;;;17.40;;
25715;SDS011;13573;50.936;4.328;2022-12-11T11:06:11;42.83;;;17.80;;
25715;SDS011;13573;50.936;4.328;2022-12-11T11:08:42;44.90;;;17.73;;
25715;SDS011;13573;50.936;4.328;2022-12-11T11:13:46;37.73;;;15.53;;
25715;SDS011;13573;50.936;4.328;2022-12-11T11:16:14;43.37;;;17.80;;
25715;SDS011;13573;50.936;4.328;2022-12-11T11:18:48;39.23;;;16.83;;
25715;SDS011;13573;50.936;4.328;2022-12-11T11:21:15;41.80;;;17.17;;
25715;SDS011;13573;50.936;4.328;2022-12-11T11:23:44;41.53;;;16.30;;
25715;SDS011;13573;50.936;4.328;2022-12-11T11:26:11;41.77;;;16.50;;
25715;SDS011;13573;50.936;4.328;2022-12-11T11:28:40;39.00;;;16.13;;
25715;SDS011;13573;50.936;4.328;2022-12-11T11:31:09;35.73;;;15.50;;
25715;SDS011;13573;50.936;4.328;2022-12-11T11:36:29;39.27;;;14.73;;
25715;SDS011;13573;50.936;4.328;2022-12-11T11:41:49;31.63;;;14.20;;
25715;SDS011;13573;50.936;4.328;2022-12-11T11:44:23;35.97;;;14.73;;
25715;SDS011;13573;50.936;4.328;2022-12-11T11:46:50;35.00;;;14.30;;
25715;SDS011;13573;50.936;4.328;2022-12-11T11:49:18;35.03;;;13.73;;
25715;SDS011;13573;50.936;4.328;2022-12-11T11:52:39;33.57;;;13.53;;
25715;SDS011;13573;50.936;4.328;2022-12-11T11:57:34;29.00;;;12.77;;
25715;SDS011;13573;50.936;4.328;2022-12-11T12:00:16;32.60;;;14.00;;
25715;SDS011;13573;50.936;4.328;2022-12-11T12:02:42;31.17;;;13.60;;
25715;SDS011;13573;50.936;4.328;2022-12-11T12:05:11;29.50;;;12.93;;
25715;SDS011;13573;50.936;4.328;2022-12-11T12:08:13;30.33;;;14.00;;
25715;SDS011;13573;50.936;4.328;2022-12-11T12:10:27;30.67;;;13.50;;
25715;SDS011;13573;50.936;4.328;2022-12-11T12:12:56;35.50;;;14.00;;
25715;SDS011;13573;50.936;4.328;2022-12-11T12:15:27;30.00;;;12.77;;
25715;SDS011;13573;50.936;4.328;2022-12-11T12:18:13;33.57;;;12.90;;
25715;SDS011;13573;50.936;4.328;2022-12-11T12:20:46;30.00;;;12.20;;
25715;SDS011;13573;50.936;4.328;2022-12-11T12:23:21;29.27;;;13.07;;
25715;SDS011;13573;50.936;4.328;2022-12-11T12:25:53;29.13;;;12.33;;
25715;SDS011;13573;50.936;4.328;2022-12-11T12:28:42;34.23;;;12.53;;
25715;SDS011;13573;50.936;4.328;2022-12-11T12:31:21;30.77;;;12.83;;
25715;SDS011;13573;50.936;4.328;2022-12-11T12:33:52;35.37;;;14.37;;
25715;SDS011;13573;50.936;4.328;2022-12-11T12:36:49;31.00;;;13.60;;
25715;SDS011;13573;50.936;4.328;2022-12-11T12:39:25;32.27;;;13.90;;
25715;SDS011;13573;50.936;4.328;2022-12-11T12:41:56;31.83;;;13.33;;
25715;SDS011;13573;50.936;4.328;2022-12-11T12:44:26;34.67;;;13.23;;
25715;SDS011;13573;50.936;4.328;2022-12-11T12:46:56;32.23;;;13.27;;
25715;SDS011;13573;50.936;4.328;2022-12-11T12:49:32;31.33;;;12.80;;
25715;SDS011;13573;50.936;4.328;2022-12-11T12:52:03;39.47;;;15.10;;
25715;SDS011;13573;50.936;4.328;2022-12-11T12:54:31;34.97;;;15.03;;
25715;SDS011;13573;50.936;4.328;2022-12-11T12:57:01;38.10;;;14.00;;
25715;SDS011;13573;50.936;4.328;2022-12-11T12:59:29;37.97;;;16.07;;
25715;SDS011;13573;50.936;4.328;2022-12-11T13:01:56;44.17;;;16.70;;
25715;SDS011;13573;50.936;4.328;2022-12-11T13:04:32;46.00;;;16.77;;
25715;SDS011;13573;50.936;4.328;2022-12-11T13:07:13;39.30;;;14.43;;
25715;SDS011;13573;50.936;4.328;2022-12-11T13:09:54;38.27;;;16.10;;
25715;SDS011;13573;50.936;4.328;2022-12-11T13:12:20;45.43;;;17.17;;
25715;SDS011;13573;50.936;4.328;2022-12-11T13:14:54;37.30;;;16.03;;
25715;SDS011;13573;50.936;4.328;2022-12-11T13:17:23;42.00;;;16.57;;
25715;SDS011;13573;50.936;4.328;2022-12-11T13:20:08;39.23;;;15.40;;
25715;SDS011;13573;50.936;4.328;2022-12-11T13:22:46;41.90;;;17.33;;
25715;SDS011;13573;50.936;4.328;2022-12-11T13:27:47;46.27;;;17.37;;
25715;SDS011;13573;50.936;4.328;2022-12-11T13:30:22;50.37;;;18.60;;
25715;SDS011;13573;50.936;4.328;2022-12-11T13:33:07;50.73;;;18.50;;
25715;SDS011;13573;50.936;4.328;2022-12-11T13:35:41;46.87;;;20.00;;
25715;SDS011;13573;50.936;4.328;2022-12-11T13:38:14;49.13;;;19.77;;
25715;SDS011;13573;50.936;4.328;2022-12-11T13:40:41;51.90;;;20.00;;
25715;SDS011;13573;50.936;4.328;2022-12-11T13:43:15;49.97;;;19.43;;
25715;SDS011;13573;50.936;4.328;2022-12-11T13:45:46;53.80;;;20.37;;
25715;SDS011;13573;50.936;4.328;2022-12-11T13:48:17;59.93;;;22.97;;
25715;SDS011;13573;50.936;4.328;2022-12-11T13:50:43;62.53;;;22.17;;
25715;SDS011;13573;50.936;4.328;2022-12-11T13:53:14;60.30;;;22.93;;
25715;SDS011;13573;50.936;4.328;2022-12-11T13:55:42;68.07;;;23.23;;
25715;SDS011;13573;50.936;4.328;2022-12-11T13:58:15;65.87;;;23.20;;
25715;SDS011;13573;50.936;4.328;2022-12-11T14:03:17;63.70;;;22.83;;
25715;SDS011;13573;50.936;4.328;2022-12-11T14:05:44;68.77;;;22.93;;
25715;SDS011;13573;50.936;4.328;2022-12-11T14:08:10;69.33;;;23.73;;
25715;SDS011;13573;50.936;4.328;2022-12-11T14:10:40;54.13;;;21.17;;
25715;SDS011;13573;50.936;4.328;2022-12-11T14:13:17;59.93;;;21.50;;
25715;SDS011;13573;50.936;4.328;2022-12-11T14:15:50;55.80;;;21.57;;
25715;SDS011;13573;50.936;4.328;2022-12-11T14:18:19;53.27;;;20.70;;
25715;SDS011;13573;50.936;4.328;2022-12-11T14:20:52;69.33;;;23.10;;
25715;SDS011;13573;50.936;4.328;2022-12-11T14:23:23;61.50;;;22.23;;
25715;SDS011;13573;50.936;4.328;2022-12-11T14:25:55;59.90;;;22.23;;
25715;SDS011;13573;50.936;4.328;2022-12-11T14:28:22;63.77;;;23.13;;
25715;SDS011;13573;50.936;4.328;2022-12-11T14:30:51;65.30;;;23.30;;
25715;SDS011;13573;50.936;4.328;2022-12-11T14:33:19;61.50;;;24.70;;
25715;SDS011;13573;50.936;4.328;2022-12-11T14:35:47;60.23;;;23.57;;
25715;SDS011;13573;50.936;4.328;2022-12-11T14:38:15;67.27;;;24.07;;
25715;SDS011;13573;50.936;4.328;2022-12-11T14:40:55;60.57;;;22.70;;
25715;SDS011;13573;50.936;4.328;2022-12-11T14:43:27;62.00;;;23.53;;
25715;SDS011;13573;50.936;4.328;2022-12-11T14:45:57;60.47;;;22.40;;
25715;SDS011;13573;50.936;4.328;2022-12-11T14:48:27;61.07;;;21.20;;
25715;SDS011;13573;50.936;4.328;2022-12-11T14:50:56;65.70;;;23.23;;
25715;SDS011;13573;50.936;4.328;2022-12-11T14:53:27;67.03;;;23.83;;
25715;SDS011;13573;50.936;4.328;2022-12-11T14:56:00;64.27;;;23.50;;
25715;SDS011;13573;50.936;4.328;2022-12-11T14:58:29;65.13;;;23.00;;